createdAt,value
2018-12-21T00:01:45.628Z,81.20
2018-12-21T00:04:13.126Z,81.20
2018-12-21T00:06:40.565Z,80.90
2018-12-21T00:09:08.091Z,80.70
2018-12-21T00:11:35.553Z,81.00
2018-12-21T00:14:03.030Z,80.80
2018-12-21T00:16:30.493Z,81.10
2018-12-21T00:18:57.981Z,81.10
2018-12-21T00:21:25.440Z,81.00
2018-12-21T00:23:52.945Z,81.10
2018-12-21T00:26:20.397Z,81.00
2018-12-21T00:28:47.890Z,80.90
2018-12-21T00:31:21.066Z,81.20
2018-12-21T00:33:54.341Z,81.00
2018-12-21T00:36:27.393Z,81.10
2018-12-21T00:39:00.494Z,80.90
2018-12-21T00:41:27.518Z,80.80
2018-12-21T00:43:57.029Z,80.80
2018-12-21T00:46:25.617Z,80.90
2018-12-21T00:48:53.638Z,80.90
2018-12-21T00:51:21.157Z,81.10
2018-12-21T00:53:48.620Z,81.00
2018-12-21T00:56:16.113Z,81.00
2018-12-21T00:58:43.594Z,81.20
2018-12-21T01:01:11.154Z,81.30
2018-12-21T01:03:38.618Z,81.30
2018-12-21T01:06:06.194Z,81.20
2018-12-21T01:08:33.709Z,81.10
2018-12-21T01:11:01.246Z,81.20
2018-12-21T01:13:28.889Z,81.20
2018-12-21T01:15:56.341Z,81.10
2018-12-21T01:18:24.028Z,81.50
2018-12-21T01:20:51.504Z,81.10
2018-12-21T01:23:19.019Z,81.30
2018-12-21T01:25:46.493Z,81.50
2018-12-21T01:28:13.958Z,81.20
2018-12-21T01:30:41.463Z,81.00
2018-12-21T01:33:08.922Z,81.90
2018-12-21T01:35:36.442Z,81.30
2018-12-21T01:38:03.976Z,81.40
2018-12-21T01:40:31.441Z,81.30
2018-12-21T01:42:58.925Z,81.20
2018-12-21T01:45:26.427Z,81.30
2018-12-21T01:47:53.892Z,81.30
2018-12-21T01:50:21.434Z,81.40
2018-12-21T01:52:48.961Z,81.20
2018-12-21T01:55:16.449Z,81.20
2018-12-21T01:57:43.926Z,81.70
2018-12-21T02:00:11.381Z,81.20
2018-12-21T02:02:38.906Z,81.30
2018-12-21T02:05:06.371Z,81.20
2018-12-21T02:07:33.945Z,82.00
2018-12-21T02:10:01.434Z,81.60
2018-12-21T02:12:29.012Z,81.30
2018-12-21T02:14:56.487Z,81.50
2018-12-21T02:17:23.969Z,81.20
2018-12-21T02:19:51.420Z,81.20
2018-12-21T02:22:18.913Z,81.70
2018-12-21T02:24:46.399Z,81.20
2018-12-21T02:27:13.879Z,81.30
2018-12-21T02:29:41.378Z,81.20
2018-12-21T02:32:08.839Z,81.30
2018-12-21T02:34:36.318Z,81.20
2018-12-21T02:37:03.818Z,81.20
2018-12-21T02:39:31.322Z,81.30
2018-12-21T02:41:58.784Z,81.30
2018-12-21T02:44:26.270Z,81.50
2018-12-21T02:46:53.740Z,81.20
2018-12-21T02:49:21.244Z,81.70
2018-12-21T02:51:48.726Z,81.70
2018-12-21T02:54:16.214Z,81.40
2018-12-21T02:56:43.693Z,81.30
2018-12-21T02:59:11.156Z,81.20
2018-12-21T03:01:38.685Z,81.20
2018-12-21T03:04:06.264Z,81.20
2018-12-21T03:06:33.738Z,81.20
2018-12-21T03:09:01.270Z,80.90
2018-12-21T03:11:28.777Z,81.20
2018-12-21T03:13:56.258Z,82.10
2018-12-21T03:16:23.886Z,81.10
2018-12-21T03:18:51.350Z,81.20
2018-12-21T03:21:18.816Z,81.30
2018-12-21T03:23:46.298Z,81.10
2018-12-21T03:26:13.879Z,81.00
2018-12-21T03:28:41.359Z,81.00
2018-12-21T03:31:08.901Z,81.20
2018-12-21T03:33:36.390Z,81.10
2018-12-21T03:36:04.111Z,80.90
2018-12-21T03:38:31.587Z,81.00
2018-12-21T03:40:59.041Z,81.00
2018-12-21T03:43:26.505Z,81.00
2018-12-21T03:45:53.951Z,81.00
2018-12-21T03:48:21.413Z,81.10
2018-12-21T03:50:48.903Z,80.90
2018-12-21T03:53:16.429Z,80.80
2018-12-21T03:55:43.901Z,80.90
2018-12-21T03:58:11.363Z,81.00
2018-12-21T04:00:38.865Z,81.10
2018-12-21T04:03:06.344Z,81.10
2018-12-21T04:05:33.828Z,81.30
2018-12-21T04:08:01.320Z,81.40
2018-12-21T04:10:28.806Z,81.10
2018-12-21T04:12:56.265Z,81.30
2018-12-21T04:15:23.802Z,81.00
2018-12-21T04:17:51.287Z,81.00
2018-12-21T04:20:18.802Z,81.20
2018-12-21T04:22:46.280Z,80.90
2018-12-21T04:25:13.844Z,81.00
2018-12-21T04:27:41.442Z,80.90
2018-12-21T04:30:09.165Z,81.00
2018-12-21T04:32:36.652Z,80.90
2018-12-21T04:35:04.617Z,80.90
2018-12-21T04:37:32.078Z,80.80
2018-12-21T04:39:59.540Z,80.90
2018-12-21T04:42:27.061Z,80.80
2018-12-21T04:44:54.525Z,81.00
2018-12-21T04:47:22.062Z,80.90
2018-12-21T04:49:49.567Z,80.80
2018-12-21T04:52:17.056Z,81.00
2018-12-21T04:54:44.550Z,80.90
2018-12-21T04:57:12.113Z,80.90
2018-12-21T04:59:39.598Z,80.80
2018-12-21T05:02:07.112Z,80.90
2018-12-21T05:04:34.615Z,80.80
2018-12-21T05:07:02.088Z,80.90
2018-12-21T05:09:29.557Z,80.70
2018-12-21T05:11:57.025Z,80.90
2018-12-21T05:14:24.510Z,80.80
2018-12-21T05:16:52.320Z,81.00
2018-12-21T05:19:19.811Z,80.90
2018-12-21T05:21:47.350Z,80.90
2018-12-21T05:24:14.913Z,81.00
2018-12-21T05:26:42.507Z,80.90
2018-12-21T05:29:09.979Z,80.90
2018-12-21T05:31:37.462Z,80.90
2018-12-21T05:34:04.950Z,80.80
2018-12-21T05:36:32.557Z,80.80
2018-12-21T05:39:02.217Z,80.80
2018-12-21T05:41:30.069Z,80.80
2018-12-21T05:43:58.379Z,80.80
2018-12-21T05:46:25.919Z,80.90
2018-12-21T05:48:53.390Z,80.90
2018-12-21T05:51:20.872Z,80.80
2018-12-21T05:53:48.355Z,80.80
2018-12-21T05:56:15.813Z,80.70
2018-12-21T05:58:43.295Z,80.80
2018-12-21T06:01:10.827Z,80.70
2018-12-21T06:03:38.346Z,80.70
2018-12-21T06:06:05.796Z,80.70
2018-12-21T06:08:33.234Z,80.90
2018-12-21T06:11:00.752Z,80.70
2018-12-21T06:13:28.245Z,80.80
2018-12-21T06:15:55.722Z,80.90
2018-12-21T06:18:23.221Z,80.70
2018-12-21T06:20:50.871Z,80.80
2018-12-21T06:23:18.405Z,80.90
2018-12-21T06:25:45.895Z,80.90
2018-12-21T06:28:13.369Z,81.10
2018-12-21T06:30:41.026Z,80.90
2018-12-21T06:33:08.536Z,80.70
2018-12-21T06:35:36.000Z,80.80
2018-12-21T06:38:04.526Z,80.70
2018-12-21T06:40:32.005Z,80.80
2018-12-21T06:42:59.482Z,80.80
2018-12-21T06:45:27.006Z,80.70
2018-12-21T06:47:54.479Z,80.70
2018-12-21T06:50:22.035Z,80.80
2018-12-21T06:52:49.644Z,80.80
2018-12-21T06:55:17.231Z,80.80
2018-12-21T06:57:44.863Z,81.30
2018-12-21T07:00:12.494Z,81.20
2018-12-21T07:02:40.121Z,81.10
2018-12-21T07:05:07.612Z,81.00
2018-12-21T07:07:35.069Z,81.40
2018-12-21T07:10:02.766Z,81.30
2018-12-21T07:12:30.237Z,81.10
2018-12-21T07:14:57.753Z,81.60
2018-12-21T07:17:26.023Z,81.70
2018-12-21T07:19:53.632Z,81.80
2018-12-21T07:22:21.103Z,82.00
2018-12-21T07:24:48.908Z,81.90
2018-12-21T07:27:16.391Z,81.80
2018-12-21T07:29:44.058Z,82.00
2018-12-21T07:32:11.620Z,82.00
2018-12-21T07:34:39.088Z,82.00
2018-12-21T07:37:06.570Z,81.60
2018-12-21T07:39:34.089Z,81.90
2018-12-21T07:42:02.288Z,82.00
2018-12-21T07:44:29.780Z,82.20
2018-12-21T07:46:57.288Z,82.00
2018-12-21T07:49:24.795Z,82.20
2018-12-21T07:51:52.319Z,82.40
2018-12-21T07:54:19.857Z,82.20
2018-12-21T07:56:47.309Z,82.30
2018-12-21T07:59:15.065Z,82.40
2018-12-21T08:01:43.352Z,82.50
2018-12-21T08:04:10.814Z,81.90
2018-12-21T08:06:39.546Z,82.60
2018-12-21T08:09:07.058Z,82.00
2018-12-21T08:11:34.896Z,82.20
2018-12-21T08:14:02.354Z,83.00
2018-12-21T08:16:29.890Z,83.60
2018-12-21T08:18:57.685Z,82.30
2018-12-21T08:21:25.149Z,82.10
2018-12-21T08:23:52.677Z,82.40
2018-12-21T08:26:20.129Z,82.20
2018-12-21T08:28:47.607Z,82.90
2018-12-21T08:31:15.248Z,82.40
2018-12-21T08:33:45.739Z,82.30
2018-12-21T08:36:13.612Z,82.40
2018-12-21T08:38:41.094Z,82.40
2018-12-21T08:41:08.574Z,82.60
2018-12-21T08:43:36.453Z,82.50
2018-12-21T08:46:04.046Z,82.30
2018-12-21T08:48:31.530Z,82.40
2018-12-21T08:50:59.391Z,82.10
2018-12-21T08:53:26.884Z,82.40
2018-12-21T08:55:54.383Z,82.90
2018-12-21T08:58:21.874Z,82.60
2018-12-21T09:00:49.470Z,82.40
2018-12-21T09:03:16.946Z,82.40
2018-12-21T09:05:44.417Z,82.40
2018-12-21T09:08:11.909Z,82.40
2018-12-21T09:10:39.437Z,82.50
2018-12-21T09:13:06.890Z,82.70
2018-12-21T09:15:34.449Z,82.40
2018-12-21T09:18:01.931Z,83.10
2018-12-21T09:20:29.422Z,83.30
2018-12-21T09:22:57.166Z,82.70
2018-12-21T09:25:24.744Z,82.90
2018-12-21T09:27:52.205Z,83.20
2018-12-21T09:30:19.676Z,82.60
2018-12-21T09:32:47.140Z,82.90
2018-12-21T09:35:14.619Z,82.30
2018-12-21T09:37:42.062Z,82.00
2018-12-21T09:40:10.035Z,82.60
2018-12-21T09:42:37.521Z,82.10
2018-12-21T09:45:05.214Z,82.50
2018-12-21T09:47:32.743Z,82.70
2018-12-21T09:50:00.177Z,82.70
2018-12-21T09:52:27.665Z,82.50
2018-12-21T09:54:55.348Z,82.20
2018-12-21T09:57:22.795Z,82.40
2018-12-21T09:59:50.500Z,82.30
2018-12-21T10:02:18.145Z,83.50
2018-12-21T10:04:45.622Z,82.30
2018-12-21T10:07:13.107Z,82.30
2018-12-21T10:09:40.659Z,82.60
2018-12-21T10:12:08.213Z,82.30
2018-12-21T10:14:35.675Z,82.90
2018-12-21T10:17:03.252Z,82.70
2018-12-21T10:19:30.813Z,83.80
2018-12-21T10:21:58.349Z,83.60
2018-12-21T10:24:25.843Z,83.10
2018-12-21T10:26:53.298Z,84.40
2018-12-21T10:29:20.852Z,84.60
2018-12-21T10:31:48.327Z,84.50
2018-12-21T10:34:15.836Z,83.90
2018-12-21T10:36:43.303Z,84.60
2018-12-21T10:39:10.780Z,84.50
2018-12-21T10:41:38.576Z,84.40
2018-12-21T10:44:06.040Z,84.40
2018-12-21T10:46:33.509Z,84.60
2018-12-21T10:49:00.949Z,84.50
2018-12-21T10:51:28.426Z,85.00
2018-12-21T10:53:55.960Z,84.20
2018-12-21T10:56:23.399Z,84.60
2018-12-21T10:58:50.879Z,84.90
2018-12-21T11:01:18.374Z,84.80
2018-12-21T11:03:45.853Z,85.90
2018-12-21T11:06:13.321Z,85.50
2018-12-21T11:08:40.785Z,85.40
2018-12-21T11:11:08.253Z,85.10
2018-12-21T11:13:35.908Z,85.00
2018-12-21T11:16:03.395Z,85.50
2018-12-21T11:18:31.016Z,86.40
2018-12-21T11:20:58.460Z,85.50
2018-12-21T11:23:25.920Z,85.30
2018-12-21T11:25:53.504Z,86.10
2018-12-21T11:28:25.408Z,86.10
2018-12-21T11:30:50.658Z,86.30
2018-12-21T11:33:18.198Z,86.60
2018-12-21T11:35:45.689Z,86.60
2018-12-21T11:38:13.172Z,86.00
2018-12-21T11:40:40.600Z,85.70
2018-12-21T11:43:08.080Z,85.70
2018-12-21T11:45:35.588Z,85.30
2018-12-21T11:48:03.142Z,86.60
2018-12-21T11:50:30.586Z,84.80
2018-12-21T11:52:58.690Z,86.00
2018-12-21T11:55:26.349Z,85.90
2018-12-21T11:57:53.913Z,86.10
2018-12-21T12:00:21.509Z,86.30
2018-12-21T12:02:48.977Z,86.00
2018-12-21T12:05:16.426Z,85.60
2018-12-21T12:07:43.901Z,85.70
2018-12-21T12:10:11.358Z,85.90
2018-12-21T12:12:39.383Z,85.70
2018-12-21T12:15:07.133Z,85.70
2018-12-21T12:17:34.638Z,85.60
2018-12-21T12:20:02.346Z,86.40
2018-12-21T12:22:29.796Z,86.30
2018-12-21T12:24:57.266Z,85.50
2018-12-21T12:27:24.744Z,86.50
2018-12-21T12:29:52.246Z,86.20
2018-12-21T12:32:19.694Z,86.00
2018-12-21T12:34:47.169Z,86.10
2018-12-21T12:37:14.634Z,85.50
2018-12-21T12:39:42.104Z,86.00
2018-12-21T12:42:09.581Z,85.50
2018-12-21T12:44:37.052Z,85.70
2018-12-21T12:47:04.506Z,85.60
2018-12-21T12:49:32.004Z,85.40
2018-12-21T12:51:59.485Z,85.40
2018-12-21T12:54:26.965Z,85.10
2018-12-21T12:56:54.456Z,85.10
2018-12-21T12:59:21.912Z,84.80
2018-12-21T13:01:49.357Z,84.70
2018-12-21T13:04:16.833Z,85.00
2018-12-21T13:06:44.313Z,85.20
2018-12-21T13:09:11.907Z,84.70
2018-12-21T13:11:39.352Z,84.70
2018-12-21T13:14:06.905Z,84.70
2018-12-21T13:16:34.449Z,84.40
2018-12-21T13:19:01.905Z,84.40
2018-12-21T13:21:29.416Z,84.40
2018-12-21T13:23:56.894Z,84.30
2018-12-21T13:26:24.768Z,84.30
2018-12-21T13:28:52.398Z,84.30
2018-12-21T13:31:19.916Z,84.80
2018-12-21T13:33:47.391Z,84.20
2018-12-21T13:36:16.129Z,83.80
2018-12-21T13:38:45.272Z,84.00
2018-12-21T13:41:12.755Z,83.80
2018-12-21T13:43:40.217Z,83.90
2018-12-21T13:46:07.661Z,84.00
2018-12-21T13:48:35.117Z,83.90
2018-12-21T13:51:02.597Z,84.60
2018-12-21T13:53:30.140Z,84.00
2018-12-21T13:55:57.641Z,84.00
2018-12-21T13:58:25.305Z,83.60
2018-12-21T14:00:52.777Z,83.90
2018-12-21T14:03:20.249Z,84.00
2018-12-21T14:05:47.706Z,83.90
2018-12-21T14:08:15.197Z,83.80
2018-12-21T14:10:42.716Z,84.00
2018-12-21T14:13:10.158Z,83.50
2018-12-21T14:15:37.651Z,83.20
2018-12-21T14:18:05.133Z,83.40
2018-12-21T14:20:32.589Z,83.50
2018-12-21T14:23:00.147Z,83.60
2018-12-21T14:25:29.052Z,83.70
2018-12-21T14:27:56.908Z,84.30
2018-12-21T14:30:24.388Z,83.50
2018-12-21T14:32:51.988Z,83.30
2018-12-21T14:35:19.446Z,83.30
2018-12-21T14:37:47.075Z,83.90
2018-12-21T14:40:14.593Z,83.20
2018-12-21T14:42:42.566Z,82.90
2018-12-21T14:45:10.094Z,83.20
2018-12-21T14:47:38.192Z,83.20
2018-12-21T14:50:07.194Z,83.80
2018-12-21T14:52:35.321Z,83.40
2018-12-21T14:55:03.548Z,83.00
2018-12-21T14:57:31.053Z,83.00
2018-12-21T14:59:58.860Z,83.20
2018-12-21T15:02:26.633Z,82.90
2018-12-21T15:04:54.122Z,83.00
2018-12-21T15:07:21.613Z,82.80
2018-12-21T15:09:49.091Z,83.00
2018-12-21T15:12:16.581Z,83.00
2018-12-21T15:14:44.047Z,82.90
2018-12-21T15:17:11.584Z,82.90
2018-12-21T15:19:39.066Z,82.70
2018-12-21T15:22:06.624Z,83.10
2018-12-21T15:24:34.078Z,82.90
2018-12-21T15:27:01.549Z,82.70
2018-12-21T15:29:29.034Z,82.90
2018-12-21T15:31:56.506Z,82.70
2018-12-21T15:34:23.983Z,83.00
2018-12-21T15:36:51.428Z,83.10
2018-12-21T15:39:18.893Z,82.80
2018-12-21T15:41:46.953Z,82.90
2018-12-21T15:44:14.456Z,82.70
2018-12-21T15:46:41.936Z,82.60
2018-12-21T15:49:09.562Z,82.50
2018-12-21T15:51:37.015Z,82.60
2018-12-21T15:54:04.509Z,82.70
2018-12-21T15:56:32.067Z,82.60
2018-12-21T15:58:59.553Z,82.60
2018-12-21T16:01:27.095Z,82.50
2018-12-21T16:03:55.691Z,82.40
2018-12-21T16:06:47.124Z,82.40
2018-12-21T16:09:14.717Z,82.30
2018-12-21T16:11:44.567Z,82.60
2018-12-21T16:14:12.017Z,82.60
2018-12-21T16:16:39.514Z,82.60
2018-12-21T16:19:07.378Z,82.60
2018-12-21T16:21:34.826Z,82.60
2018-12-21T16:24:06.817Z,82.40
2018-12-21T16:26:31.945Z,82.60
2018-12-21T16:28:59.737Z,82.50
2018-12-21T16:31:27.373Z,82.50
2018-12-21T16:33:54.838Z,82.40
2018-12-21T16:36:23.346Z,82.60
2018-12-21T16:38:51.020Z,82.50
2018-12-21T16:41:18.554Z,82.50
2018-12-21T16:43:46.307Z,82.70
2018-12-21T16:46:13.870Z,82.60
2018-12-21T16:48:41.625Z,82.50
2018-12-21T16:51:12.871Z,83.10
2018-12-21T16:53:43.860Z,82.30
2018-12-21T16:56:12.614Z,82.40
2018-12-21T16:58:42.058Z,82.50
2018-12-21T17:01:09.649Z,82.60
2018-12-21T17:03:38.743Z,82.50
2018-12-21T17:06:06.306Z,82.60
2018-12-21T17:08:33.816Z,83.40
2018-12-21T17:11:01.330Z,82.60
2018-12-21T17:13:29.183Z,82.60
2018-12-21T17:15:56.970Z,82.50
2018-12-21T17:18:24.713Z,82.50
2018-12-21T17:20:52.369Z,82.40
2018-12-21T17:23:19.894Z,82.70
2018-12-21T17:25:47.387Z,82.40
2018-12-21T17:28:15.259Z,82.50
2018-12-21T17:30:45.695Z,82.40
2018-12-21T17:33:13.332Z,82.50
2018-12-21T17:35:41.604Z,82.50
2018-12-21T17:38:09.187Z,82.50
2018-12-21T17:40:38.101Z,82.70
2018-12-21T17:43:06.970Z,82.40
2018-12-21T17:45:34.944Z,82.50
2018-12-21T17:48:03.887Z,82.50
2018-12-21T17:50:31.567Z,82.50
2018-12-21T17:52:59.172Z,82.70
2018-12-21T17:55:26.692Z,82.40
2018-12-21T17:57:54.305Z,82.40
2018-12-21T18:00:23.650Z,83.50
2018-12-21T18:02:51.840Z,82.50
2018-12-21T18:05:22.328Z,82.60
2018-12-21T18:07:49.900Z,82.50
2018-12-21T18:10:17.364Z,82.30
2018-12-21T18:12:44.828Z,82.60
2018-12-21T18:15:12.406Z,83.30
2018-12-21T18:17:39.965Z,82.40
2018-12-21T18:20:09.070Z,82.40
2018-12-21T18:22:36.570Z,82.30
2018-12-21T18:25:08.678Z,82.50
2018-12-21T18:27:36.238Z,82.40
2018-12-21T18:30:15.867Z,83.10
2018-12-21T18:32:43.482Z,82.30
2018-12-21T18:35:11.818Z,82.10
2018-12-21T18:37:43.345Z,82.20
2018-12-21T18:40:11.529Z,82.10
2018-12-21T18:42:39.017Z,82.30
2018-12-21T18:45:08.405Z,82.10
2018-12-21T18:47:35.919Z,82.20
2018-12-21T18:50:05.015Z,82.10
2018-12-21T18:52:32.479Z,82.00
2018-12-21T18:54:59.959Z,82.00
2018-12-21T18:57:27.626Z,82.00
2018-12-21T18:59:56.224Z,82.00
2018-12-21T19:02:28.207Z,81.90
2018-12-21T19:10:15.752Z,81.90
2018-12-21T19:15:23.435Z,81.80
2018-12-21T19:17:58.211Z,82.20
2018-12-21T19:20:34.370Z,81.80
2018-12-21T19:23:10.912Z,81.80
2018-12-21T19:25:40.036Z,81.80
2018-12-21T19:28:20.930Z,82.00
2018-12-21T19:30:49.857Z,82.10
2018-12-21T19:33:23.748Z,82.00
2018-12-21T19:35:53.288Z,82.00
2018-12-21T19:38:26.539Z,82.10
2018-12-21T19:43:42.638Z,82.00
2018-12-21T19:46:14.338Z,82.10
2018-12-21T19:48:42.050Z,82.20
2018-12-21T19:51:09.624Z,82.20
2018-12-21T19:53:37.125Z,82.30
2018-12-21T19:56:09.065Z,82.10
2018-12-21T19:58:36.766Z,81.90
2018-12-21T20:01:04.322Z,82.10
2018-12-21T20:03:32.184Z,82.00
2018-12-21T20:06:00.789Z,81.90
2018-12-21T20:08:28.266Z,82.90
2018-12-21T20:10:55.760Z,82.00
2018-12-21T20:13:23.480Z,82.20
2018-12-21T20:15:50.957Z,82.10
2018-12-21T20:18:18.444Z,82.10
2018-12-21T20:20:46.166Z,82.20
2018-12-21T20:23:13.957Z,82.00
2018-12-21T20:25:41.457Z,82.20
2018-12-21T20:28:10.182Z,82.00
2018-12-21T20:30:37.706Z,82.00
2018-12-21T20:33:05.177Z,82.30
2018-12-21T20:35:32.713Z,82.00
2018-12-21T20:38:03.690Z,82.10
2018-12-21T20:40:31.577Z,82.00
2018-12-21T20:43:01.030Z,82.10
2018-12-21T20:45:28.666Z,81.90
2018-12-21T20:47:58.612Z,81.90
2018-12-21T20:50:27.140Z,81.80
2018-12-21T20:52:54.692Z,81.90
2018-12-21T20:55:22.728Z,81.90
2018-12-21T20:57:50.964Z,81.90
2018-12-21T21:00:19.685Z,81.90
2018-12-21T21:02:47.443Z,81.80
2018-12-21T21:05:17.993Z,81.80
2018-12-21T21:07:45.759Z,81.90
2018-12-21T21:10:13.629Z,81.80
2018-12-21T21:12:41.197Z,81.80
2018-12-21T21:15:12.817Z,81.80
2018-12-21T21:17:41.515Z,81.90
2018-12-21T21:20:13.260Z,82.10
2018-12-21T21:22:41.575Z,81.80
2018-12-21T21:25:10.775Z,81.90
2018-12-21T21:27:38.472Z,81.70
2018-12-21T21:30:11.472Z,81.70
2018-12-21T21:32:39.012Z,81.90
2018-12-21T21:35:07.224Z,81.70
2018-12-21T21:37:39.269Z,81.70
2018-12-21T21:40:11.941Z,81.90
2018-12-21T21:42:39.541Z,81.80
2018-12-21T21:45:09.105Z,81.80
2018-12-21T21:47:36.747Z,81.90
2018-12-21T21:50:07.771Z,81.90
2018-12-21T21:52:35.372Z,81.80
2018-12-21T21:55:03.173Z,81.90
2018-12-21T21:57:39.327Z,81.90
2018-12-21T22:00:03.231Z,81.80
2018-12-21T22:02:32.323Z,81.80
2018-12-21T22:05:01.008Z,81.80
2018-12-21T22:07:29.822Z,81.70
2018-12-21T22:09:58.306Z,81.80
2018-12-21T22:12:25.972Z,81.70
2018-12-21T22:14:54.327Z,81.80
2018-12-21T22:17:22.056Z,81.70
2018-12-21T22:19:50.983Z,81.80
2018-12-21T22:22:19.167Z,81.90
2018-12-21T22:24:49.320Z,81.90
2018-12-21T22:27:16.946Z,81.80
2018-12-21T22:29:44.482Z,81.70
2018-12-21T22:32:14.626Z,81.80
2018-12-21T22:34:42.915Z,81.70
2018-12-21T22:37:17.224Z,81.70
2018-12-21T22:42:19.090Z,81.40
2018-12-21T22:44:46.571Z,81.50
2018-12-21T22:47:14.098Z,81.40
2018-12-21T22:49:41.563Z,81.80
2018-12-21T22:52:09.089Z,81.50
2018-12-21T22:54:36.538Z,81.40
2018-12-21T22:57:04.001Z,81.50
2018-12-21T22:59:31.473Z,81.50
2018-12-21T23:01:59.055Z,81.50
2018-12-21T23:04:26.595Z,81.70
2018-12-21T23:06:54.085Z,81.50
2018-12-21T23:09:21.533Z,82.20
2018-12-21T23:11:49.038Z,81.50
2018-12-21T23:14:16.517Z,81.50
2018-12-21T23:16:43.965Z,81.40
2018-12-21T23:19:11.458Z,81.40
2018-12-21T23:21:38.982Z,81.40
2018-12-21T23:24:06.488Z,81.30
2018-12-21T23:26:33.967Z,81.20
2018-12-21T23:29:01.476Z,81.20
2018-12-21T23:31:28.966Z,81.30
2018-12-21T23:33:56.430Z,81.20
2018-12-21T23:36:23.965Z,81.30
2018-12-21T23:38:51.447Z,81.20
2018-12-21T23:41:18.903Z,81.20
2018-12-21T23:43:46.401Z,81.20
2018-12-21T23:46:13.915Z,81.10
2018-12-21T23:48:41.368Z,81.10
2018-12-21T23:51:08.847Z,81.10
2018-12-21T23:53:36.343Z,81.10
2018-12-21T23:56:11.795Z,82.00
2018-12-21T23:58:33.334Z,81.10
